Amsterdam Heliport

EHHA · North Holland, 荷兰

罗盘
风向 的 风向 170° 直升机
风: 12 kt, 4 beaufort
0 ft 1.000 2.000 3.000 4.000 5.000
Cloud Cloud
FEW 2.600
METAR EHAM 232155Z 17012KT 9999 FEW026 05/04 Q0992 NOSIG

METAR Amsterdam Heliport - EHHA

Amsterdam Heliport是,荷兰中的直升机场。 该机场位于纬度52,41463和经度4,80480。 本场的ICAO机场代码为EHHA。 机场在Amsterdam FIR中。

该航空气象观测是针对Amsterdam Airport Schiphol在2024年2月23日 22:55, 当地时间进行的。

机场观察

风向为170°,速度为12 kt。

可见度为10 km 或者更多。

有几云在2.600 ft的高度。 没有观察到天花板。

温度为5 °C,阵风为-1 °C。 露点为4 °C,相对湿度为93%。 海平面上的气压为992 hPa (QNH)。

白天

今天,太阳从07:40升起,在18:07降落。 这适用于Amsterdam Heliport,世界夏令时可能有所不同。 当地时间与世界标准时间之间的时差为+1 小时。 当前,没有夏令时有效。

公司介绍

我们没有关于这个机场的公司信息。

体会

到Vliegles.nl去找飞行课程,跳伞和其他飞行体验。 浏览页面,了解Amsterdam Heliport附近所有可用的活动。 你也可以使用搜索功能来寻找你所在地附近的特定飞行课程、跳伞或其他飞行体验。

乌云

2.600 ft FEW 几云

温度 & 天气

温度 5 °C
露点 4 °C
相对湿度 93%
风寒 -1 °C
Kp-index 0 (0-9)

白天

日出
07:40 (8:11)
中午
12:54
日落
18:07

小工具

你想在你的网站上有一个关于Amsterdam Heliport的当前航空天气(METAR)的小部件吗?

显示HTML代码
?>